X  Kiinni Metar Aviation säätiedot        KGAI Gaithersburg
Lämpötila
61°F Lämpötila
47°F Kastepiste
60% Kosteus



Tuuli
9 MPH
15 KM/T
4 M/S
8 KTS



190°
E
Nykyiset olosuhteet

Mostly Sunny Enimmäkseen aurinkoista
Paine 1006 (hPa) - 29.7 (inHg)
Näkyvyys 10 (maili) - 16 (km)
Lentokenttä
Lentokentän koodi KGAI

Sijainti: Gaithersburg
Etäisyys: 11 (mi)

Metar:
METAR KGAI 211356Z AUTO 19008KT 10SM FEW120 16/08 A2967 RMK AO2 SLP057 T01610083

Aika: 04-21-2021 9:56 am EDT